Wrangell Airport Wrangell US
ICAO: PAWG
IATA:
Category: Medium
Scheduled Services:

Elevation: 49 ft
TransAlt. 18000 ft.

Airport Communications:
AWOS 3:128.5
ANCHORAGE CNTR:118
CTAF:122.6
SITKA RDO:122.45

PAWG Zoom In..

If you have problems with the map follow the link
https://www.worldairports.se/pages/airport.php?
ICAO=PAWG

Runways:

(A) RW 10 length 5999 ft width 150 ft
---- / hdg 101

(B) RW 28 length 5999 ft width 150 ft
---- / hdg 281

Location; PAWG
Day. 12 / Time. 23.56 Zulu
* Altimeter: 29.61
* Temperature: 06° c. 42.8°f.
* Wind from: VRB° Speed 05 kn.
Dewpoint: 04° c.
Visibility: 10 Statute Miles.
Clouds: Broken 3500 ft.
Clouds: Overcast 4000 ft.
Conditions: Light Rain.

PAWG 122356Z VRB05KT 10SM -RA BKN035 OVC040 06/04 A2961 RMK AO2 SLP027 P0000 60000 T00560039 10061 20044 53016


Wind From VRB°
Speed 05 kn.

 
 
jpsmedia worldairports.se 2019   terms of use